ADDS METAR Data INFO
IDs: Format: Raw Decoded Include TAF

Data at: 0304 UTC 17 Jan 2018

KDRI 170255Z AUTO 36011G16KT 10SM SCT120 M03/M10 A3068 RMK AO2 T10351099
KDRI 170235Z AUTO 36010G16KT 10SM BKN120 M03/M10 A3067 RMK AO2 T10351096
KDRI 170215Z AUTO 36011G18KT 10SM SCT025 BKN120 M03/M09 A3066 RMK AO2 T10351093
KDRI 170200Z AUTO 01009G14KT 10SM SCT025 BKN100 OVC120 M03/M08 A3067 RMK AO2 T10321085
KDRI 170135Z AUTO 36008KT 10SM SCT025 OVC100 M03/M08 A3066 RMK AO2 T10311082
KDRI 170115Z AUTO 01010KT 10SM SCT025 OVC100 M03/M08 A3065 RMK AO2 T10301081
KDRI 170055Z AUTO 35010G15KT 10SM OVC090 M03/M08 A3065 RMK AO2 T10301082
KDRI 170035Z AUTO 34008G15KT 10SM OVC090 M03/M08 A3063 RMK AO2 T10281078
KDRI 170015Z AUTO 36007KT 10SM OVC100 M03/M07 A3062 RMK AO2 T10301075
KDRI 162355Z AUTO 36008KT 10SM OVC100 M03/M08 A3061 RMK AO2 T10301077 11015 21030
KDRI 162335Z AUTO 01009G15KT 10SM SCT021 BKN080 OVC110 M03/M08 A3062 RMK AO2 T10301077
KDRI 162315Z AUTO 35008KT 10SM SCT021 OVC080 M03/M07 A3062 RMK AO2 T10291073
KDRI 162255Z AUTO 35010KT 10SM BKN019 BKN048 OVC065 M03/M07 A3061 RMK AO2 T10301072
KDRI 162235Z AUTO 35007KT 10SM BKN017 BKN023 OVC065 M03/M07 A3062 RMK AO2 T10301066
KDRI 162215Z AUTO 36009G15KT 10SM OVC017 M03/M06 A3061 RMK AO2 T10301065
KDRI 162155Z AUTO 36007KT 10SM OVC017 M03/M06 A3060 RMK AO2 T10281060
KDRI 162135Z AUTO 36011G14KT 10SM BKN015 BKN047 OVC065 M03/M06 A3060 RMK AO2 T10301058
KDRI 162115Z AUTO 01009G15KT 3SM -SN BKN014 BKN030 OVC055 M03/M05 A3060 RMK AO2 T10301048
KDRI 162055Z AUTO 36012KT 2 1/2SM -SN OVC014 M03/M04 A3061 RMK AO2 T10271045
KDRI 162035Z AUTO 36012G17KT 10SM OVC014 M02/M04 A3061 RMK AO2 T10251044
KDRI 162015Z AUTO 34010G17KT 10SM OVC014 M02/M04 A3060 RMK AO2 T10221044
KDRI 161955Z AUTO 36011G16KT 4SM -SN OVC012 M02/M03 A3060 RMK AO2 T10211034
KDRI 161935Z AUTO 35013G19KT 1 1/2SM -SN OVC009 M02/M03 A3060 RMK AO2 T10221029
KDRI 161915Z AUTO 36010KT 1 3/4SM -SN OVC009 M02/M03 A3060 RMK AO2 T10251031
KDRI 161855Z AUTO 36010G14KT 1 1/2SM -SN OVC009 M02/M03 A3060 RMK AO2 T10211027
KDRI 161835Z AUTO 35010G15KT 5SM -SN OVC011 M02/M02 A3063 RMK AO2 T10171024
KDRI 161815Z AUTO 01007KT 10SM UP OVC011 M02/M03 A3064 RMK AO2 T10161027
KDRI 161755Z AUTO 36009G14KT 10SM UP OVC011 M01/M02 A3064 RMK AO2 60005 T10151025 10030 21015
KDRI 161735Z AUTO 03008G16KT 10SM UP OVC013 M01/M02 A3063 RMK AO2 T10131024
KDRI 161715Z AUTO 01014G18KT 10SM UP OVC015 M01/M03 A3064 RMK AO2 T10101026
KDRI 161655Z AUTO 36012G20KT 7SM UP BKN014 OVC021 M01/M03 A3064 RMK AO2 T10101028
KDRI 161635Z AUTO 36012G16KT 7SM -SN BKN011 OVC022 M01/M02 A3066 RMK AO2 T10071016
KDRI 161615Z AUTO 01009G19KT 4SM -SN OVC011 M01/M01 A3065 RMK AO2 T10071015
KDRI 161555Z AUTO 01011G17KT 7SM SCT008 OVC013 M01/M01 A3064 RMK AO2 T10061012
KDRI 161535Z AUTO 01006G15KT 1 1/4SM -SN OVC006 00/M01 A3063 RMK AO2 T10021008
KDRI 161515Z AUTO 01011G18KT 1 1/2SM -SN BKN006 OVC010 00/M01 A3061 RMK AO2 T00001006
KDRI 161455Z AUTO 36010G17KT 1SM -SN OVC009 00/00 A3060 RMK AO2 60005 T00001005
KDRI 161435Z AUTO 36011G17KT 4SM -SN OVC009 00/00 A3060 RMK AO2 T00001003
KDRI 161415Z AUTO 36013KT 3SM -SN OVC009 00/00 A3059 RMK AO2 T00021001
KDRI 161355Z AUTO 36009KT 4SM -SN OVC009 00/00 A3058 RMK AO2 P0002 T00040000
KDRI 161335Z AUTO 35010G17KT 3SM -SN OVC009 01/00 A3058 RMK AO2 P0002 T00060000
KDRI 161315Z AUTO 01012G17KT 5SM -RA BKN009 OVC014 01/00 A3056 RMK AO2 P0001 T00100004
KDRI 161255Z AUTO 36011G24KT 5SM -RA SCT007 BKN013 OVC022 01/01 A3055 RMK AO2 P0003 T00140007
KDRI 161235Z AUTO 36013G20KT 5SM RA BKN007 BKN011 OVC019 02/02 A3054 RMK AO2 P0002 T00230017
KDRI 161215Z AUTO 01011G18KT 5SM -RA BKN010 OVC019 03/02 A3052 RMK AO2 P0001 T00270020
KDRI 161155Z AUTO 36013G21KT 10SM RA OVC008 03/03 A3051 RMK AO2 P0002 60002 70002 T00320025 10087 20032
KDRI 161135Z AUTO 35009G14KT 10SM RA BKN008 OVC015 04/03 A3050 RMK AO2 P0002 T00400033
KDRI 161115Z AUTO 36014G18KT 5SM -RA BKN010 OVC014 05/04 A3048 RMK AO2 P0001 T00450037
KDRI 161055Z AUTO 35011G15KT 7SM -RA BKN014 OVC019 05/04 A3048 RMK AO2 T00500040
KDRI 161035Z AUTO 36009G14KT 7SM DZ OVC018 06/03 A3047 RMK AO2 T00580033
KDRI 161015Z AUTO 35010G16KT 10SM OVC016 07/03 A3045 RMK AO2 T00680025
KDRI 160955Z AUTO 35010G16KT 10SM BKN014 OVC031 07/04 A3043 RMK AO2 T00720035
KDRI 160935Z AUTO 34008KT 10SM OVC010 08/05 A3043 RMK AO2 T00780052
KDRI 160915Z AUTO 35007KT 10SM OVC010 08/06 A3042 RMK AO2 T00800063
KDRI 160855Z AUTO 34007KT 10SM BKN010 BKN038 OVC110 08/07 A3042 RMK AO2 T00800068
KDRI 160835Z AUTO 34008KT 10SM SCT037 BKN060 OVC110 08/06 A3041 RMK AO2 T00800062
KDRI 160815Z AUTO 35006KT 10SM BKN037 OVC060 08/05 A3040 RMK AO2 T00810054
KDRI 160755Z AUTO 33005KT 10SM SCT039 OVC060 08/05 A3040 RMK AO2 T00820046
KDRI 160735Z AUTO 32004KT 10SM SCT039 OVC060 08/05 A3040 RMK AO2 T00810045
KDRI 160715Z AUTO 30003KT 10SM OVC060 08/04 A3039 RMK AO2 T00840044
KDRI 160655Z AUTO 34004KT 10SM OVC060 08/05 A3039 RMK AO2 T00840047
KDRI 160635Z AUTO 01004KT 10SM BKN060 OVC075 08/05 A3038 RMK AO2 T00830050
KDRI 160615Z AUTO 34004KT 10SM SCT060 BKN075 OVC100 07/06 A3037 RMK AO2 T00710061
KDRI 160555Z AUTO 00000KT 10SM SCT070 SCT075 OVC100 08/05 A3036 RMK AO2 T00750049 10128 20058 401671015
KDRI 160535Z AUTO 00000KT 10SM BKN070 OVC100 08/04 A3036 RMK AO2 T00770043
KDRI 160515Z AUTO 00000KT 10SM SCT070 OVC100 08/04 A3036 RMK AO2 T00760035
KDRI 160455Z AUTO 00000KT 10SM OVC100 07/04 A3035 RMK AO2 T00740036
KDRI 160435Z AUTO 00000KT 10SM OVC090 06/03 A3036 RMK AO2 T00600030
KDRI 160415Z AUTO 00000KT 10SM BKN090 06/03 A3035 RMK AO2 T00620030
KDRI 160355Z AUTO 00000KT 10SM CLR 06/03 A3035 RMK AO2 T00630029
KDRI 160335Z AUTO 00000KT 10SM CLR 09/03 A3034 RMK AO2 T00850029
KDRI 160315Z AUTO 13004KT 10SM CLR 09/03 A3033 RMK AO2 T00880029
KDRI 160255Z AUTO 15004KT 10SM CLR 09/03 A3034 RMK AO2 T00930028
KDRI 160235Z AUTO 13005KT 10SM CLR 10/03 A3033 RMK AO2 T00970027
KDRI 160215Z AUTO 13004KT 10SM CLR 10/03 A3034 RMK AO2 T01040026
KDRI 160155Z AUTO 13004KT 10SM CLR 11/03 A3034 RMK AO2 T01050026
KDRI 160135Z AUTO 14004KT 10SM CLR 11/03 A3033 RMK AO2 T01060030
KDRI 160115Z AUTO 13005KT 10SM CLR 11/03 A3034 RMK AO2 T01110030
KDRI 160055Z AUTO 13005KT 10SM CLR 12/03 A3034 RMK AO2 T01160030
KDRI 160035Z AUTO 13004KT 10SM CLR 12/04 A3034 RMK AO2 T01150036
KDRI 160015Z AUTO 14004KT 10SM CLR 13/04 A3033 RMK AO2 T01250038
KDRI 152355Z AUTO 12004KT 10SM SCT060 13/04 A3033 RMK AO2 T01290040 10167 20129
KDRI 152335Z AUTO 13003KT 10SM BKN060 14/04 A3034 RMK AO2 T01400039
KDRI 152315Z AUTO 15003KT 10SM CLR 15/03 A3033 RMK AO2 T01510031
KDRI 152255Z AUTO 16005KT 10SM CLR 16/03 A3033 RMK AO2 T01570028
KDRI 152235Z AUTO 18006KT 10SM CLR 16/03 A3033 RMK AO2 T01610026
KDRI 152215Z AUTO 20005KT 10SM SCT055 17/02 A3033 RMK AO2 T01650017
KDRI 152155Z AUTO 19006KT 10SM SCT055 17/02 A3033 RMK AO2 T01650016
KDRI 152135Z AUTO 23005KT 10SM CLR 17/02 A3032 RMK AO2 T01660018
KDRI 152115Z AUTO 00000KT 10SM CLR 17/02 A3032 RMK AO2 T01660017
KDRI 152055Z AUTO 23003KT 10SM CLR 17/02 A3033 RMK AO2 T01650020
KDRI 152035Z AUTO 22005KT 10SM CLR 17/02 A3033 RMK AO2 T01650021
KDRI 152015Z AUTO 16003KT 10SM CLR 16/02 A3033 RMK AO2 T01620019
KDRI 151955Z AUTO 22003KT 10SM CLR 16/02 A3034 RMK AO2 T01590022
KDRI 151935Z AUTO 26004KT 10SM CLR 16/02 A3034 RMK AO2 T01570017
KDRI 151915Z AUTO 13004KT 10SM CLR 15/02 A3035 RMK AO2 T01520018
KDRI 151855Z AUTO 23004KT 10SM CLR 15/02 A3036 RMK AO2 T01500015
KDRI 151835Z AUTO 14005KT 10SM CLR 14/01 A3038 RMK AO2 T01440007
KDRI 151815Z AUTO 00000KT 10SM CLR 14/00 A3040 RMK AO2 T01401002
KDRI 151755Z AUTO 18003KT 10SM CLR 13/00 A3040 RMK AO2 T01341005 10134 21015
KDRI 151735Z AUTO 20005KT 10SM CLR 13/M01 A3041 RMK AO2 T01301006
KDRI 151715Z AUTO 17004KT 10SM CLR 12/01 A3043 RMK AO2 T01230005
KDRI 151655Z AUTO 17006KT 10SM CLR 11/01 A3044 RMK AO2 T01120006
KDRI 151635Z AUTO 17005KT 10SM CLR 11/01 A3044 RMK AO2 T01050008
KDRI 151615Z AUTO 15003KT 10SM CLR 09/00 A3044 RMK AO2 T00930001
KDRI 151555Z AUTO 13004KT 10SM CLR 08/00 A3044 RMK AO2 T00821002
KDRI 151535Z AUTO 12004KT 10SM CLR 07/M01 A3044 RMK AO2 T00701012
KDRI 151515Z AUTO 12004KT 10SM CLR 06/M02 A3044 RMK AO2 T00581022